Time;durP1;ratioP1;P1;durP2;ratioP2;P2;SDS_P1;SDS_P2;PMS_P1;PMS_P2;Temp;Humidity;BMP_temperature;BMP_pressure;BME280_temperature;BME280_humidity;BME280_pressure;Samples;Min_cycle;Max_cycle;Signal;HPM_P1;HPM_P2
2022/04/10 00:01:06;;;;;;;9.00;1.92;;;;;;;;;;4907426;29;20059;-63
2022/04/10 00:03:32;;;;;;;5.10;1.85;;;;;;;;;;4906288;29;20052;-62
2022/04/10 00:05:58;;;;;;;8.80;2.08;;;;;;;;;;4907349;29;20418;-64
2022/04/10 00:08:24;;;;;;;6.15;2.33;;;;;;;;;;4911092;29;20550;-64
2022/04/10 00:10:50;;;;;;;7.75;2.10;;;;;;;;;;4908280;29;20494;-67
2022/04/10 00:13:15;;;;;;;5.38;2.10;;;;;;;;;;4902800;29;20127;-63
2022/04/10 00:15:41;;;;;;;5.20;2.08;;;;;;;;;;4906256;29;20048;-64
2022/04/10 00:18:07;;;;;;;8.77;2.90;;;;;;;;;;4906938;29;20060;-63
2022/04/10 00:20:33;;;;;;;7.95;2.28;;;;;;;;;;4905165;29;20059;-63
2022/04/10 00:22:59;;;;;;;5.95;2.50;;;;;;;;;;4905818;29;20395;-66
2022/04/10 00:25:25;;;;;;;7.38;2.53;;;;;;;;;;4906788;29;20068;-67
2022/04/10 00:27:51;;;;;;;8.52;2.67;;;;;;;;;;4902782;29;20144;-62
2022/04/10 00:30:17;;;;;;;11.02;3.00;;;;;;;;;;4903079;29;20426;-65
2022/04/10 00:32:44;;;;;;;6.45;2.47;;;;;;;;;;4900997;29;20064;-69
2022/04/10 00:35:11;;;;;;;6.70;2.70;;;;;;;;;;4905989;29;20052;-64
2022/04/10 00:37:38;;;;;;;5.72;2.45;;;;;;;;;;4906950;29;20064;-65
2022/04/10 00:40:06;;;;;;;5.75;2.80;;;;;;;;;;4906571;29;20060;-63
2022/04/10 00:42:33;;;;;;;6.72;2.90;;;;;;;;;;4902302;29;20056;-64
2022/04/10 00:45:00;;;;;;;4.78;2.55;;;;;;;;;;4904090;29;20056;-64
2022/04/10 00:47:26;;;;;;;6.82;2.50;;;;;;;;;;4905420;29;20141;-63
2022/04/10 00:49:53;;;;;;;4.72;2.30;;;;;;;;;;4908080;29;20079;-63
2022/04/10 00:52:19;;;;;;;4.43;2.10;;;;;;;;;;4910081;29;20095;-64
2022/04/10 00:54:45;;;;;;;5.88;2.05;;;;;;;;;;4908268;29;20052;-64
2022/04/10 00:57:12;;;;;;;5.65;2.63;;;;;;;;;;4911639;29;20078;-63
2022/04/10 00:59:39;;;;;;;5.20;2.65;;;;;;;;;;4905553;29;20510;-65
2022/04/10 01:02:05;;;;;;;3.90;2.03;;;;;;;;;;4907830;29;20518;-63
2022/04/10 01:04:32;;;;;;;4.47;2.05;;;;;;;;;;4909940;29;20172;-63
2022/04/10 01:06:59;;;;;;;6.78;2.35;;;;;;;;;;4909692;29;20060;-64
2022/04/10 01:09:26;;;;;;;4.43;2.20;;;;;;;;;;4908436;29;20055;-63
2022/04/10 01:11:53;;;;;;;4.43;2.08;;;;;;;;;;4890673;29;20433;-64
2022/04/10 01:14:19;;;;;;;5.13;2.25;;;;;;;;;;4904449;29;20055;-64
2022/04/10 01:16:48;;;;;;;3.92;2.10;;;;;;;;;;4905876;29;20044;-62
2022/04/10 01:19:16;;;;;;;8.27;2.65;;;;;;;;;;4907379;29;20056;-64
2022/04/10 01:21:44;;;;;;;7.55;2.10;;;;;;;;;;4908724;29;20096;-64
2022/04/10 01:24:13;;;;;;;5.70;2.30;;;;;;;;;;4907392;29;20048;-69
2022/04/10 01:26:40;;;;;;;5.60;2.22;;;;;;;;;;4892434;29;20538;-63
2022/04/10 01:29:08;;;;;;;5.40;2.63;;;;;;;;;;4907980;29;20048;-63
2022/04/10 01:31:37;;;;;;;15.65;2.55;;;;;;;;;;4906237;29;20055;-63
2022/04/10 01:34:05;;;;;;;3.50;2.35;;;;;;;;;;4908412;29;20091;-64
2022/04/10 01:36:33;;;;;;;4.60;2.38;;;;;;;;;;4908722;29;20448;-64
2022/04/10 01:39:00;;;;;;;4.97;2.15;;;;;;;;;;4909418;29;20234;-62
2022/04/10 01:41:27;;;;;;;5.63;1.88;;;;;;;;;;4908120;29;20078;-63
2022/04/10 01:43:55;;;;;;;4.38;1.90;;;;;;;;;;4906549;29;20048;-62
2022/04/10 01:46:23;;;;;;;2.47;1.67;;;;;;;;;;4907950;29;20521;-65
2022/04/10 01:48:49;;;;;;;6.07;1.70;;;;;;;;;;4904811;29;20123;-62
2022/04/10 01:51:15;;;;;;;4.30;1.83;;;;;;;;;;4909615;29;20107;-63
2022/04/10 01:53:41;;;;;;;2.40;1.58;;;;;;;;;;4905629;29;20052;-65
2022/04/10 01:56:08;;;;;;;4.63;1.95;;;;;;;;;;4909202;29;20135;-64
2022/04/10 01:58:38;;;;;;;5.50;2.10;;;;;;;;;;4910481;29;20059;-64
2022/04/10 02:01:08;;;;;;;7.65;2.30;;;;;;;;;;4909145;29;20156;-62
2022/04/10 02:03:35;;;;;;;6.15;2.65;;;;;;;;;;4907160;29;20068;-63
2022/04/10 02:06:01;;;;;;;4.82;1.90;;;;;;;;;;4906402;29;20095;-62
2022/04/10 02:08:31;;;;;;;5.53;1.80;;;;;;;;;;4907801;29;20060;-63
2022/04/10 02:10:57;;;;;;;4.80;2.10;;;;;;;;;;4907385;29;20573;-63
2022/04/10 02:13:24;;;;;;;8.68;1.80;;;;;;;;;;4906108;29;20454;-63
2022/04/10 02:15:50;;;;;;;7.05;1.75;;;;;;;;;;4901771;29;20074;-63
2022/04/10 02:18:17;;;;;;;3.72;2.08;;;;;;;;;;4907545;29;20567;-64
2022/04/10 02:20:43;;;;;;;6.20;2.42;;;;;;;;;;4907049;29;20059;-65
2022/04/10 02:23:09;;;;;;;6.05;2.05;;;;;;;;;;4905420;29;20154;-64
2022/04/10 02:25:35;;;;;;;5.75;2.40;;;;;;;;;;4905566;29;20941;-64
2022/04/10 02:28:01;;;;;;;4.05;2.30;;;;;;;;;;4905968;29;20225;-62
2022/04/10 02:30:27;;;;;;;5.22;2.10;;;;;;;;;;4909599;29;20537;-61
2022/04/10 02:32:53;;;;;;;8.07;2.55;;;;;;;;;;4902165;29;20056;-63
2022/04/10 02:35:19;;;;;;;6.95;2.33;;;;;;;;;;4905373;29;20119;-62
2022/04/10 02:37:45;;;;;;;8.35;2.60;;;;;;;;;;4889019;29;20729;-63
2022/04/10 02:40:16;;;;;;;6.28;2.47;;;;;;;;;;4905444;29;20040;-62
2022/04/10 02:42:42;;;;;;;7.90;2.75;;;;;;;;;;4905793;29;20048;-64
2022/04/10 02:45:09;;;;;;;9.50;2.85;;;;;;;;;;4904914;29;20529;-62
2022/04/10 02:47:35;;;;;;;9.23;2.70;;;;;;;;;;4908767;29;21370;-69
2022/04/10 02:50:01;;;;;;;11.20;2.85;;;;;;;;;;4906875;29;20052;-65
2022/04/10 02:52:27;;;;;;;10.50;3.42;;;;;;;;;;4907205;29;20540;-64
2022/04/10 02:54:53;;;;;;;10.38;3.03;;;;;;;;;;4905800;29;20047;-63
2022/04/10 02:57:18;;;;;;;14.90;3.90;;;;;;;;;;4905245;29;20044;-62
2022/04/10 02:59:45;;;;;;;15.05;3.63;;;;;;;;;;4903680;29;20098;-62
2022/04/10 03:02:11;;;;;;;18.25;3.65;;;;;;;;;;4904807;29;20417;-63
2022/04/10 03:04:36;;;;;;;16.48;3.70;;;;;;;;;;4903392;29;20052;-61
2022/04/10 03:07:03;;;;;;;17.77;3.38;;;;;;;;;;4904739;29;20820;-63
2022/04/10 03:09:28;;;;;;;14.85;3.70;;;;;;;;;;4905973;29;20063;-63
2022/04/10 03:11:54;;;;;;;22.85;4.07;;;;;;;;;;4906270;29;20056;-63
2022/04/10 03:14:20;;;;;;;20.67;4.57;;;;;;;;;;4905351;29;20493;-62
2022/04/10 03:16:46;;;;;;;18.88;3.97;;;;;;;;;;4904110;29;20040;-64
2022/04/10 03:19:12;;;;;;;15.45;3.30;;;;;;;;;;4904319;29;20538;-63
2022/04/10 03:21:38;;;;;;;16.90;3.78;;;;;;;;;;4904769;29;20067;-63
2022/04/10 03:24:04;;;;;;;19.65;3.75;;;;;;;;;;4902835;29;20107;-63
2022/04/10 03:26:30;;;;;;;16.30;3.70;;;;;;;;;;4907557;29;20067;-62
2022/04/10 03:28:56;;;;;;;18.73;3.55;;;;;;;;;;4906626;29;20056;-62
2022/04/10 03:31:23;;;;;;;25.77;3.78;;;;;;;;;;4906718;29;20453;-62
2022/04/10 03:33:52;;;;;;;24.92;4.38;;;;;;;;;;4902817;29;20222;-64
2022/04/10 03:36:18;;;;;;;28.13;4.22;;;;;;;;;;4904722;29;20086;-63
2022/04/10 03:38:44;;;;;;;23.67;3.92;;;;;;;;;;4906340;29;20103;-63
2022/04/10 03:41:10;;;;;;;17.23;3.80;;;;;;;;;;4911205;29;20063;-63
2022/04/10 03:43:36;;;;;;;29.60;4.18;;;;;;;;;;4903778;29;20252;-64
2022/04/10 03:46:02;;;;;;;38.65;4.68;;;;;;;;;;4907032;29;20080;-64
2022/04/10 03:48:29;;;;;;;24.35;4.25;;;;;;;;;;4909310;29;20052;-64
2022/04/10 03:50:55;;;;;;;25.10;4.20;;;;;;;;;;4906196;29;20056;-63
2022/04/10 03:53:21;;;;;;;25.17;4.28;;;;;;;;;;4902675;29;20072;-63
2022/04/10 03:55:47;;;;;;;31.92;4.18;;;;;;;;;;4905627;29;20040;-63
2022/04/10 03:58:14;;;;;;;23.92;4.10;;;;;;;;;;4906415;29;20076;-63
2022/04/10 04:00:40;;;;;;;26.35;4.30;;;;;;;;;;4906006;29;20143;-65
2022/04/10 04:03:06;;;;;;;21.50;3.70;;;;;;;;;;4906561;29;20541;-65
2022/04/10 04:05:32;;;;;;;27.52;4.93;;;;;;;;;;4907350;29;20107;-64
2022/04/10 04:07:58;;;;;;;25.38;4.38;;;;;;;;;;4908281;29;20520;-62
2022/04/10 04:10:24;;;;;;;23.98;4.65;;;;;;;;;;4907223;29;20396;-65
2022/04/10 04:12:51;;;;;;;22.95;4.38;;;;;;;;;;4905748;29;20070;-67
2022/04/10 04:15:16;;;;;;;22.48;4.05;;;;;;;;;;4909999;29;20056;-64
2022/04/10 04:17:42;;;;;;;20.83;4.22;;;;;;;;;;4909798;29;20052;-62
2022/04/10 04:20:09;;;;;;;32.65;4.35;;;;;;;;;;4910026;29;20067;-63
2022/04/10 04:22:35;;;;;;;24.05;4.50;;;;;;;;;;4903724;29;20060;-62
2022/04/10 04:25:06;;;;;;;33.22;4.75;;;;;;;;;;4904811;29;20120;-63
2022/04/10 04:27:33;;;;;;;21.10;4.30;;;;;;;;;;4905940;29;20052;-63
2022/04/10 04:30:01;;;;;;;18.95;4.40;;;;;;;;;;4906085;29;20775;-63
2022/04/10 04:32:27;;;;;;;19.20;4.10;;;;;;;;;;4903978;29;20502;-62
2022/04/10 04:34:53;;;;;;;26.55;4.10;;;;;;;;;;4905731;29;20106;-62
2022/04/10 04:37:19;;;;;;;18.25;3.70;;;;;;;;;;4907669;29;20052;-65
2022/04/10 04:39:45;;;;;;;19.70;4.50;;;;;;;;;;4902210;29;20142;-63
2022/04/10 04:42:11;;;;;;;20.27;3.65;;;;;;;;;;4904854;29;20170;-62
2022/04/10 04:44:37;;;;;;;24.42;4.88;;;;;;;;;;4884063;29;20143;-63
2022/04/10 04:47:04;;;;;;;17.17;3.80;;;;;;;;;;4905285;29;20100;-62
2022/04/10 04:49:30;;;;;;;28.40;4.60;;;;;;;;;;4904272;29;20056;-62
2022/04/10 04:51:55;;;;;;;18.35;4.18;;;;;;;;;;4904911;29;20067;-63
2022/04/10 04:54:21;;;;;;;22.63;3.92;;;;;;;;;;4901611;29;20513;-63
2022/04/10 04:56:48;;;;;;;18.95;3.97;;;;;;;;;;4903737;29;20377;-63
2022/04/10 04:59:14;;;;;;;20.17;3.90;;;;;;;;;;4904914;29;20052;-63
2022/04/10 05:01:44;;;;;;;22.38;3.75;;;;;;;;;;4904303;29;20057;-63
2022/04/10 05:04:11;;;;;;;22.88;3.83;;;;;;;;;;4902453;29;20102;-62
2022/04/10 05:06:37;;;;;;;18.60;4.00;;;;;;;;;;4906806;29;20727;-65
2022/04/10 05:09:05;;;;;;;22.15;4.03;;;;;;;;;;4908544;29;20052;-63
2022/04/10 05:11:31;;;;;;;16.83;3.83;;;;;;;;;;4905351;29;20056;-67
2022/04/10 05:13:57;;;;;;;22.10;4.90;;;;;;;;;;4899880;29;20044;-62
2022/04/10 05:16:23;;;;;;;18.70;3.50;;;;;;;;;;4885553;29;20052;-62
2022/04/10 05:18:49;;;;;;;22.75;4.10;;;;;;;;;;4904821;29;20072;-64
2022/04/10 05:21:16;;;;;;;22.45;3.33;;;;;;;;;;4905805;29;20040;-63
2022/04/10 05:23:42;;;;;;;17.33;3.92;;;;;;;;;;4900336;29;20506;-61
2022/04/10 05:26:08;;;;;;;13.18;3.50;;;;;;;;;;4905033;29;20056;-63
2022/04/10 05:28:34;;;;;;;24.05;4.25;;;;;;;;;;4904917;29;20056;-63
2022/04/10 05:31:01;;;;;;;18.48;3.47;;;;;;;;;;4905371;29;20569;-67
2022/04/10 05:33:28;;;;;;;24.05;4.43;;;;;;;;;;4904334;29;20052;-62
2022/04/10 05:35:55;;;;;;;21.67;4.18;;;;;;;;;;4906220;29;20514;-63
2022/04/10 05:38:22;;;;;;;21.50;4.18;;;;;;;;;;4912315;29;20052;-64
2022/04/10 05:40:52;;;;;;;16.65;3.90;;;;;;;;;;4910885;29;20067;-63
2022/04/10 05:43:22;;;;;;;22.20;3.90;;;;;;;;;;4911391;29;20419;-64
2022/04/10 05:45:49;;;;;;;19.48;4.00;;;;;;;;;;4907888;29;20048;-64
2022/04/10 05:48:15;;;;;;;22.67;4.22;;;;;;;;;;4908813;29;20044;-64
2022/04/10 05:50:41;;;;;;;17.95;4.03;;;;;;;;;;4908524;29;20058;-64
2022/04/10 05:53:07;;;;;;;20.52;4.20;;;;;;;;;;4905106;29;20090;-63
2022/04/10 05:55:33;;;;;;;17.33;4.18;;;;;;;;;;4910369;29;20071;-65
2022/04/10 05:58:01;;;;;;;22.35;4.80;;;;;;;;;;4911367;29;20061;-67
2022/04/10 06:00:27;;;;;;;18.33;4.15;;;;;;;;;;4902791;29;20040;-64
2022/04/10 06:02:53;;;;;;;18.73;3.53;;;;;;;;;;4903516;29;20065;-64
2022/04/10 06:05:26;;;;;;;18.13;4.20;;;;;;;;;;4890231;29;20040;-65
2022/04/10 06:07:52;;;;;;;17.90;4.32;;;;;;;;;;4907562;29;20047;-64
2022/04/10 06:10:18;;;;;;;33.35;4.75;;;;;;;;;;4908153;29;20119;-65
2022/04/10 06:12:43;;;;;;;19.88;4.38;;;;;;;;;;4914990;29;20142;-63
2022/04/10 06:15:09;;;;;;;22.08;4.25;;;;;;;;;;4904723;29;20498;-62
2022/04/10 06:17:35;;;;;;;21.42;4.20;;;;;;;;;;4904595;29;20143;-62
2022/04/10 06:20:02;;;;;;;14.52;3.67;;;;;;;;;;4904558;29;20489;-63
2022/04/10 06:22:28;;;;;;;15.10;3.85;;;;;;;;;;4901835;29;20052;-63
2022/04/10 06:24:54;;;;;;;20.80;3.90;;;;;;;;;;4905545;29;20036;-64
2022/04/10 06:27:20;;;;;;;20.95;3.55;;;;;;;;;;4910688;29;20147;-66
2022/04/10 06:29:47;;;;;;;18.00;3.88;;;;;;;;;;4905764;29;20123;-64
2022/04/10 06:32:13;;;;;;;21.25;4.13;;;;;;;;;;4907863;29;20151;-65
2022/04/10 06:34:40;;;;;;;18.00;3.55;;;;;;;;;;4903220;29;20195;-62
2022/04/10 06:37:07;;;;;;;12.10;3.92;;;;;;;;;;4904142;29;20052;-66
2022/04/10 06:39:34;;;;;;;18.30;3.90;;;;;;;;;;4907938;29;20064;-64
2022/04/10 06:42:01;;;;;;;16.80;3.50;;;;;;;;;;4911378;29;20662;-65
2022/04/10 06:44:26;;;;;;;22.90;5.15;;;;;;;;;;4904771;29;20104;-63
2022/04/10 06:46:52;;;;;;;23.65;3.97;;;;;;;;;;4907320;29;20533;-69
2022/04/10 06:49:19;;;;;;;18.20;3.95;;;;;;;;;;4909244;29;20075;-63
2022/04/10 06:51:45;;;;;;;20.42;3.47;;;;;;;;;;4907689;29;20064;-63
2022/04/10 06:54:11;;;;;;;18.58;4.32;;;;;;;;;;4904894;29;20056;-64
2022/04/10 06:56:36;;;;;;;15.38;3.67;;;;;;;;;;4908449;29;20122;-64
2022/04/10 06:59:02;;;;;;;21.55;4.50;;;;;;;;;;4907957;29;20510;-65
2022/04/10 07:01:29;;;;;;;18.30;4.13;;;;;;;;;;4906111;29;20430;-63
2022/04/10 07:03:54;;;;;;;20.85;4.35;;;;;;;;;;4902187;29;20074;-63
2022/04/10 07:06:20;;;;;;;21.45;4.82;;;;;;;;;;4905302;29;20636;-63
2022/04/10 07:08:47;;;;;;;17.75;3.60;;;;;;;;;;4905188;29;20051;-64
2022/04/10 07:11:12;;;;;;;14.90;3.35;;;;;;;;;;4905539;29;20062;-64
2022/04/10 07:13:38;;;;;;;19.52;4.07;;;;;;;;;;4903109;29;20150;-63
2022/04/10 07:16:04;;;;;;;14.63;3.58;;;;;;;;;;4906437;29;20063;-64
2022/04/10 07:18:30;;;;;;;17.35;3.70;;;;;;;;;;4904345;29;20047;-65
2022/04/10 07:20:56;;;;;;;13.93;3.05;;;;;;;;;;4898136;29;20422;-64
2022/04/10 07:23:45;;;;;;;20.63;3.45;;;;;;;;;;4899050;29;20537;-67
2022/04/10 07:26:13;;;;;;;15.70;3.60;;;;;;;;;;4903145;29;20048;-63
2022/04/10 07:28:40;;;;;;;13.27;3.50;;;;;;;;;;4903361;29;20052;-62
2022/04/10 07:31:09;;;;;;;16.45;3.55;;;;;;;;;;4906446;29;20179;-63
2022/04/10 07:33:36;;;;;;;14.63;3.13;;;;;;;;;;4901756;29;20048;-63
2022/04/10 07:36:03;;;;;;;20.27;3.50;;;;;;;;;;4903420;29;20059;-64
2022/04/10 07:38:30;;;;;;;14.52;3.25;;;;;;;;;;4902977;29;21182;-63
2022/04/10 07:40:56;;;;;;;17.88;3.53;;;;;;;;;;4901755;29;20123;-65
2022/04/10 07:43:22;;;;;;;16.10;4.10;;;;;;;;;;4897793;29;20139;-68
2022/04/10 07:48:32;;;;;;;22.60;4.07;;;;;;;;;;4904841;29;20121;-71
2022/04/10 07:51:00;;;;;;;21.08;3.53;;;;;;;;;;4904518;29;20098;-63
2022/04/10 07:53:28;;;;;;;20.63;4.75;;;;;;;;;;4902935;29;20044;-64
2022/04/10 07:55:54;;;;;;;22.17;4.70;;;;;;;;;;4904413;29;20081;-65
2022/04/10 07:58:20;;;;;;;19.20;4.40;;;;;;;;;;4905032;29;20055;-64
2022/04/10 08:00:46;;;;;;;19.40;4.32;;;;;;;;;;4902695;29;20064;-64
2022/04/10 08:03:12;;;;;;;18.75;3.55;;;;;;;;;;4898609;29;20490;-65
2022/04/10 08:05:38;;;;;;;18.17;3.90;;;;;;;;;;4902486;29;20083;-64
2022/04/10 08:08:05;;;;;;;20.65;4.65;;;;;;;;;;4904771;29;20438;-63
2022/04/10 08:10:31;;;;;;;22.50;3.88;;;;;;;;;;4891833;29;20497;-63
2022/04/10 08:12:58;;;;;;;19.52;4.03;;;;;;;;;;4898978;29;20040;-62
2022/04/10 08:15:24;;;;;;;25.77;4.20;;;;;;;;;;4902503;29;20079;-64
2022/04/10 08:17:50;;;;;;;19.75;3.78;;;;;;;;;;4897370;29;20050;-64
2022/04/10 08:20:16;;;;;;;23.02;4.40;;;;;;;;;;4895876;29;20053;-63
2022/04/10 08:22:48;;;;;;;23.60;4.00;;;;;;;;;;4891077;29;20870;-63
2022/04/10 08:25:16;;;;;;;24.88;5.63;;;;;;;;;;4913586;29;20107;-64
2022/04/10 08:27:43;;;;;;;21.48;4.70;;;;;;;;;;4910924;29;20111;-65
2022/04/10 08:30:09;;;;;;;18.83;4.13;;;;;;;;;;4908285;29;20073;-63
2022/04/10 08:32:37;;;;;;;31.17;4.40;;;;;;;;;;4911547;29;20048;-66
2022/04/10 08:35:04;;;;;;;20.77;4.45;;;;;;;;;;4908156;29;20048;-62
2022/04/10 08:37:30;;;;;;;24.70;4.93;;;;;;;;;;4901605;29;20060;-63
2022/04/10 08:39:56;;;;;;;16.15;3.47;;;;;;;;;;4892178;29;20066;-66
2022/04/10 08:42:22;;;;;;;22.73;4.50;;;;;;;;;;4910807;29;20130;-66
2022/04/10 08:44:48;;;;;;;20.92;4.30;;;;;;;;;;4911650;29;20382;-64
2022/04/10 08:47:20;;;;;;;21.42;4.32;;;;;;;;;;4910714;29;20051;-64
2022/04/10 08:49:47;;;;;;;23.30;4.65;;;;;;;;;;4895418;29;20048;-68
2022/04/10 08:52:16;;;;;;;34.05;4.72;;;;;;;;;;4909646;29;20048;-63
2022/04/10 08:54:46;;;;;;;18.95;3.70;;;;;;;;;;4909022;29;20080;-64
2022/04/10 08:57:13;;;;;;;24.05;4.20;;;;;;;;;;4910894;29;20051;-71
2022/04/10 08:59:39;;;;;;;17.33;4.10;;;;;;;;;;4911152;29;20127;-65
2022/04/10 09:02:06;;;;;;;30.45;3.83;;;;;;;;;;4907453;29;20509;-65
2022/04/10 09:04:32;;;;;;;20.27;3.83;;;;;;;;;;4910569;29;20048;-65
2022/04/10 09:06:59;;;;;;;18.33;3.85;;;;;;;;;;4912279;29;20573;-66
2022/04/10 09:09:26;;;;;;;18.75;4.28;;;;;;;;;;4912607;29;20051;-66
2022/04/10 09:11:53;;;;;;;28.40;4.15;;;;;;;;;;4914850;29;20056;-66
2022/04/10 09:14:24;;;;;;;23.10;4.72;;;;;;;;;;4908954;29;20074;-63
2022/04/10 09:17:14;;;;;;;18.13;3.67;;;;;;;;;;4912324;29;20090;-63
2022/04/10 09:19:51;;;;;;;19.52;4.20;;;;;;;;;;4896852;29;20187;-66
2022/04/10 09:22:30;;;;;;;19.20;3.70;;;;;;;;;;4905965;29;20056;-67
2022/04/10 09:25:12;;;;;;;15.98;3.35;;;;;;;;;;4909039;29;20061;-66
2022/04/10 09:27:43;;;;;;;23.05;4.50;;;;;;;;;;4909408;29;20067;-65
2022/04/10 09:30:17;;;;;;;16.50;3.70;;;;;;;;;;4899990;29;20035;-65
2022/04/10 09:32:44;;;;;;;17.58;3.83;;;;;;;;;;4897306;29;20123;-66
2022/04/10 09:35:12;;;;;;;26.45;3.88;;;;;;;;;;4909407;29;20060;-65
2022/04/10 09:37:57;;;;;;;21.58;3.67;;;;;;;;;;4911476;29;20055;-66
2022/04/10 09:40:35;;;;;;;25.45;3.88;;;;;;;;;;4915885;29;20474;-67
2022/04/10 09:43:10;;;;;;;20.25;4.57;;;;;;;;;;4912481;29;20411;-67
2022/04/10 09:45:38;;;;;;;20.55;4.43;;;;;;;;;;4911117;29;20211;-69
2022/04/10 09:48:27;;;;;;;20.52;3.50;;;;;;;;;;4922441;29;20051;-70
2022/04/10 09:50:57;;;;;;;18.25;4.03;;;;;;;;;;4901781;29;20091;-70
2022/04/10 09:53:23;;;;;;;25.05;3.90;;;;;;;;;;4912168;29;20644;-70
2022/04/10 09:56:02;;;;;;;24.02;3.97;;;;;;;;;;4909351;29;20040;-67
2022/04/10 09:58:29;;;;;;;25.95;3.80;;;;;;;;;;4913534;29;20052;-67
2022/04/10 10:00:56;;;;;;;19.40;3.45;;;;;;;;;;4912773;29;20127;-72
2022/04/10 10:03:24;;;;;;;19.67;3.67;;;;;;;;;;4912061;29;20047;-67
2022/04/10 10:05:50;;;;;;;20.08;3.30;;;;;;;;;;4907743;29;20047;-70
2022/04/10 10:08:17;;;;;;;18.05;3.88;;;;;;;;;;4912755;29;20036;-69
2022/04/10 10:10:43;;;;;;;22.52;4.20;;;;;;;;;;4909114;29;20040;-71
2022/04/10 10:13:09;;;;;;;26.40;4.00;;;;;;;;;;4911572;29;20050;-68
2022/04/10 10:15:36;;;;;;;19.13;4.28;;;;;;;;;;4914836;29;20138;-67
2022/04/10 10:18:05;;;;;;;22.13;4.07;;;;;;;;;;4915288;29;20070;-68
2022/04/10 10:20:32;;;;;;;16.50;3.72;;;;;;;;;;4913809;29;20044;-68
2022/04/10 10:23:08;;;;;;;17.13;4.00;;;;;;;;;;4913774;29;20061;-68
2022/04/10 10:25:52;;;;;;;23.23;4.28;;;;;;;;;;4912441;29;20099;-70
2022/04/10 10:28:38;;;;;;;20.45;4.10;;;;;;;;;;4910841;29;20048;-68
2022/04/10 10:31:29;;;;;;;16.42;3.78;;;;;;;;;;4915517;29;20055;-68
2022/04/10 10:33:58;;;;;;;21.17;4.07;;;;;;;;;;4916639;29;20052;-69
2022/04/10 10:36:27;;;;;;;15.05;4.15;;;;;;;;;;4911626;29;20060;-71
2022/04/10 10:38:57;;;;;;;18.30;4.63;;;;;;;;;;4911988;29;20054;-69
2022/04/10 10:41:23;;;;;;;21.52;4.32;;;;;;;;;;4915105;29;20050;-67
2022/04/10 10:43:50;;;;;;;17.10;3.85;;;;;;;;;;4911427;29;20140;-69
2022/04/10 10:46:21;;;;;;;27.55;4.25;;;;;;;;;;4913662;29;20056;-67
2022/04/10 10:48:47;;;;;;;23.80;4.38;;;;;;;;;;4913690;29;20044;-70
2022/04/10 10:51:15;;;;;;;19.15;4.68;;;;;;;;;;4908870;29;20055;-69
2022/04/10 10:53:46;;;;;;;22.25;4.70;;;;;;;;;;4909524;29;20487;-69
2022/04/10 10:56:19;;;;;;;18.30;4.57;;;;;;;;;;4909519;29;20036;-69
2022/04/10 10:58:49;;;;;;;26.08;5.28;;;;;;;;;;4909779;29;20060;-69
2022/04/10 11:01:23;;;;;;;17.08;4.90;;;;;;;;;;4912476;29;20758;-70
2022/04/10 11:04:09;;;;;;;27.63;5.22;;;;;;;;;;4907684;29;20059;-69
2022/04/10 11:06:47;;;;;;;24.90;4.85;;;;;;;;;;4912971;29;20059;-70
2022/04/10 11:09:32;;;;;;;23.05;5.18;;;;;;;;;;4913448;29;20055;-73
2022/04/10 11:12:00;;;;;;;;;;;;;;;;;;4914249;29;20123;-67
2022/04/10 11:14:40;;;;;;;22.02;5.00;;;;;;;;;;4911538;29;19959;-65
2022/04/10 11:17:18;;;;;;;18.65;4.82;;;;;;;;;;4911286;29;20450;-66
2022/04/10 11:19:47;;;;;;;16.17;4.22;;;;;;;;;;4894591;29;20059;-67
2022/04/10 11:22:19;;;;;;;17.55;4.88;;;;;;;;;;4904785;29;20052;-68
2022/04/10 11:24:45;;;;;;;15.57;4.82;;;;;;;;;;4907326;29;20474;-66
2022/04/10 11:27:15;;;;;;;17.90;3.95;;;;;;;;;;4910525;29;20071;-66
2022/04/10 11:29:54;;;;;;;22.05;5.25;;;;;;;;;;4906350;29;20052;-65
2022/04/10 11:32:21;;;;;;;15.75;4.30;;;;;;;;;;4907291;29;20040;-67
2022/04/10 11:34:58;;;;;;;24.30;4.32;;;;;;;;;;4905356;29;20526;-67
2022/04/10 11:37:36;;;;;;;17.75;4.10;;;;;;;;;;4906415;29;20102;-65
2022/04/10 11:40:02;;;;;;;14.88;3.63;;;;;;;;;;4907762;29;20133;-68
2022/04/10 11:42:30;;;;;;;16.73;4.43;;;;;;;;;;4906430;29;20121;-65
2022/04/10 11:44:58;;;;;;;14.32;4.28;;;;;;;;;;4906357;29;20538;-66
2022/04/10 11:47:25;;;;;;;16.00;3.65;;;;;;;;;;4906636;29;20043;-68
2022/04/10 11:49:54;;;;;;;16.58;3.92;;;;;;;;;;4902191;29;20044;-68
2022/04/10 11:52:21;;;;;;;13.30;3.50;;;;;;;;;;4886232;29;20048;-66
2022/04/10 11:54:50;;;;;;;15.20;3.67;;;;;;;;;;4903728;29;20040;-66
2022/04/10 11:57:16;;;;;;;18.98;3.70;;;;;;;;;;4903393;29;20044;-66
2022/04/10 11:59:43;;;;;;;15.18;3.70;;;;;;;;;;4905237;29;20060;-65
2022/04/10 12:02:13;;;;;;;18.63;4.20;;;;;;;;;;4904342;29;20042;-66
2022/04/10 12:04:41;;;;;;;15.52;3.97;;;;;;;;;;4906231;29;20588;-66
2022/04/10 12:07:18;;;;;;;13.80;3.53;;;;;;;;;;4906436;29;20055;-66
2022/04/10 12:09:54;;;;;;;18.50;4.03;;;;;;;;;;4907006;29;20068;-65
2022/04/10 12:12:37;;;;;;;14.18;3.40;;;;;;;;;;4910036;29;20040;-62
2022/04/10 12:15:14;;;;;;;21.10;4.13;;;;;;;;;;4911058;29;20059;-63
2022/04/10 12:17:40;;;;;;;17.55;4.30;;;;;;;;;;4909719;29;20048;-66
2022/04/10 12:20:06;;;;;;;22.08;4.35;;;;;;;;;;4912797;29;20048;-65
2022/04/10 12:22:32;;;;;;;16.73;4.30;;;;;;;;;;4907270;29;20083;-63
2022/04/10 12:24:59;;;;;;;14.98;3.40;;;;;;;;;;4908383;29;20075;-62
2022/04/10 12:27:26;;;;;;;19.30;4.22;;;;;;;;;;4909823;29;20058;-62
2022/04/10 12:29:53;;;;;;;17.83;4.10;;;;;;;;;;4908217;29;20072;-62
2022/04/10 12:32:19;;;;;;;16.75;3.92;;;;;;;;;;4907462;29;20048;-64
2022/04/10 12:34:46;;;;;;;14.82;4.07;;;;;;;;;;4911021;29;20510;-64
2022/04/10 12:37:13;;;;;;;17.48;3.92;;;;;;;;;;4913011;29;20052;-63
2022/04/10 12:39:41;;;;;;;11.70;3.28;;;;;;;;;;4909639;29;20048;-63
2022/04/10 12:42:13;;;;;;;12.52;3.10;;;;;;;;;;4909201;29;20071;-63
2022/04/10 12:44:41;;;;;;;16.67;3.30;;;;;;;;;;4910257;29;20067;-65
2022/04/10 12:47:09;;;;;;;9.40;2.97;;;;;;;;;;4911489;29;20550;-62
2022/04/10 12:49:35;;;;;;;11.13;3.30;;;;;;;;;;4890368;29;20048;-67
2022/04/10 12:52:03;;;;;;;16.88;4.20;;;;;;;;;;4910991;29;20066;-64
2022/04/10 12:54:40;;;;;;;15.05;3.03;;;;;;;;;;4915495;29;20052;-62
2022/04/10 12:57:08;;;;;;;12.70;3.08;;;;;;;;;;4899079;29;22065;-63
2022/04/10 12:59:38;;;;;;;12.20;3.17;;;;;;;;;;4898052;29;20052;-62
2022/04/10 13:02:10;;;;;;;16.10;3.20;;;;;;;;;;4899710;29;20395;-62
2022/04/10 13:04:36;;;;;;;19.90;3.83;;;;;;;;;;4910807;29;20925;-63
2022/04/10 13:07:02;;;;;;;15.73;3.38;;;;;;;;;;4911968;29;20404;-65
2022/04/10 13:09:27;;;;;;;14.05;3.25;;;;;;;;;;4911308;29;20473;-62
2022/04/10 13:11:54;;;;;;;19.33;4.25;;;;;;;;;;4913293;29;20419;-63
2022/04/10 13:14:19;;;;;;;13.93;3.30;;;;;;;;;;4914577;29;20052;-64
2022/04/10 13:16:55;;;;;;;22.08;3.80;;;;;;;;;;4899275;29;20192;-62
2022/04/10 13:19:21;;;;;;;14.43;2.85;;;;;;;;;;4912280;29;20107;-63
2022/04/10 13:21:47;;;;;;;17.10;3.85;;;;;;;;;;4914459;29;20048;-66
2022/04/10 13:24:14;;;;;;;18.08;3.08;;;;;;;;;;4893734;29;20450;-64
2022/04/10 13:26:42;;;;;;;21.95;4.03;;;;;;;;;;4911702;29;20147;-63
2022/04/10 13:29:11;;;;;;;20.55;4.07;;;;;;;;;;4917359;29;20056;-66
2022/04/10 13:31:38;;;;;;;16.13;3.97;;;;;;;;;;4916217;29;20078;-65
2022/04/10 13:34:04;;;;;;;24.13;4.18;;;;;;;;;;4911760;29;20110;-64
2022/04/10 13:36:36;;;;;;;23.55;4.13;;;;;;;;;;4911917;29;20402;-64
2022/04/10 13:39:02;;;;;;;18.90;3.40;;;;;;;;;;4910823;29;20546;-66
2022/04/10 13:41:29;;;;;;;24.10;4.38;;;;;;;;;;4914454;29;20066;-63
2022/04/10 13:43:55;;;;;;;25.50;3.55;;;;;;;;;;4911829;29;20479;-66
2022/04/10 13:46:20;;;;;;;24.30;3.80;;;;;;;;;;4913640;29;20040;-63
2022/04/10 13:48:47;;;;;;;26.38;3.38;;;;;;;;;;4913185;29;20131;-65
2022/04/10 13:51:13;;;;;;;19.17;3.28;;;;;;;;;;4913986;29;20420;-65
2022/04/10 13:53:39;;;;;;;19.70;3.80;;;;;;;;;;4913634;29;20556;-65
2022/04/10 13:56:05;;;;;;;19.17;4.18;;;;;;;;;;4906471;29;20462;-62
2022/04/10 13:58:31;;;;;;;15.25;3.08;;;;;;;;;;4914101;29;20553;-67
2022/04/10 14:00:57;;;;;;;26.27;3.65;;;;;;;;;;4914905;29;20080;-62
2022/04/10 14:03:23;;;;;;;18.85;4.85;;;;;;;;;;4908535;29;20040;-63
2022/04/10 14:05:49;;;;;;;15.38;3.50;;;;;;;;;;4916954;29;20409;-69
2022/04/10 14:08:14;;;;;;;14.48;3.53;;;;;;;;;;4915070;29;20552;-66
2022/04/10 14:10:40;;;;;;;22.83;4.35;;;;;;;;;;4914728;29;20048;-63
2022/04/10 14:13:06;;;;;;;25.52;4.15;;;;;;;;;;4912324;29;20389;-62
2022/04/10 14:15:34;;;;;;;21.58;4.13;;;;;;;;;;4913628;29;20056;-66
2022/04/10 14:18:00;;;;;;;20.73;3.60;;;;;;;;;;4920432;29;20380;-63
2022/04/10 14:20:26;;;;;;;17.38;4.18;;;;;;;;;;4909484;29;20055;-66
2022/04/10 14:22:52;;;;;;;19.40;3.58;;;;;;;;;;4911256;29;20131;-65
2022/04/10 14:25:18;;;;;;;22.25;3.55;;;;;;;;;;4911542;29;20087;-64
2022/04/10 14:27:44;;;;;;;27.08;3.55;;;;;;;;;;4914085;29;20396;-65
2022/04/10 14:30:10;;;;;;;22.00;3.95;;;;;;;;;;4913283;29;20050;-65
2022/04/10 14:32:37;;;;;;;24.90;3.63;;;;;;;;;;4911306;29;20568;-64
2022/04/10 14:35:03;;;;;;;21.25;3.50;;;;;;;;;;4911138;29;20086;-63
2022/04/10 14:37:29;;;;;;;20.85;3.58;;;;;;;;;;4907680;29;20047;-66
2022/04/10 14:39:55;;;;;;;26.30;3.53;;;;;;;;;;4913078;29;20123;-62